sensor_id;sensor_type;location;lat;lon;timestamp;temperature;humidity
19654;DHT22;9975;48.046;7.804;2023-07-22T01:56:32;12.60;99.90
19654;DHT22;9975;48.046;7.804;2023-07-22T01:58:58;12.60;99.90
19654;DHT22;9975;48.046;7.804;2023-07-22T02:01:24;12.60;99.90
19654;DHT22;9975;48.046;7.804;2023-07-22T02:03:50;12.70;99.90
19654;DHT22;9975;48.046;7.804;2023-07-22T02:06:16;12.70;99.90
19654;DHT22;9975;48.046;7.804;2023-07-22T02:08:42;12.80;99.90
19654;DHT22;9975;48.046;7.804;2023-07-22T02:11:08;12.80;99.90
19654;DHT22;9975;48.046;7.804;2023-07-22T02:13:37;12.80;99.90
19654;DHT22;9975;48.046;7.804;2023-07-22T02:16:03;12.80;99.90
19654;DHT22;9975;48.046;7.804;2023-07-22T02:18:29;12.80;99.90
19654;DHT22;9975;48.046;7.804;2023-07-22T02:20:56;12.80;99.90
19654;DHT22;9975;48.046;7.804;2023-07-22T02:23:22;12.80;99.90
19654;DHT22;9975;48.046;7.804;2023-07-22T02:25:52;12.80;99.90
19654;DHT22;9975;48.046;7.804;2023-07-22T02:28:18;12.70;99.90
19654;DHT22;9975;48.046;7.804;2023-07-22T02:30:47;12.80;99.90
19654;DHT22;9975;48.046;7.804;2023-07-22T02:33:13;12.80;99.90
19654;DHT22;9975;48.046;7.804;2023-07-22T02:35:40;12.80;99.90
19654;DHT22;9975;48.046;7.804;2023-07-22T02:38:08;12.80;99.90
19654;DHT22;9975;48.046;7.804;2023-07-22T02:40:37;12.90;99.90
19654;DHT22;9975;48.046;7.804;2023-07-22T02:43:03;12.80;99.90
19654;DHT22;9975;48.046;7.804;2023-07-22T02:45:29;12.80;99.90
19654;DHT22;9975;48.046;7.804;2023-07-22T02:47:55;12.80;99.90
19654;DHT22;9975;48.046;7.804;2023-07-22T02:50:21;12.80;99.90
19654;DHT22;9975;48.046;7.804;2023-07-22T02:52:46;12.80;99.90
19654;DHT22;9975;48.046;7.804;2023-07-22T02:55:17;12.80;99.90
19654;DHT22;9975;48.046;7.804;2023-07-22T02:57:46;12.80;99.90
19654;DHT22;9975;48.046;7.804;2023-07-22T03:00:13;12.80;99.90
19654;DHT22;9975;48.046;7.804;2023-07-22T03:02:39;12.90;99.90
19654;DHT22;9975;48.046;7.804;2023-07-22T03:05:06;12.90;99.90
19654;DHT22;9975;48.046;7.804;2023-07-22T03:07:38;12.80;99.90
19654;DHT22;9975;48.046;7.804;2023-07-22T03:10:05;12.80;99.90
19654;DHT22;9975;48.046;7.804;2023-07-22T03:12:32;12.70;99.90
19654;DHT22;9975;48.046;7.804;2023-07-22T03:14:57;12.80;99.90
19654;DHT22;9975;48.046;7.804;2023-07-22T03:17:23;12.80;99.90
19654;DHT22;9975;48.046;7.804;2023-07-22T03:19:48;12.80;99.90
19654;DHT22;9975;48.046;7.804;2023-07-22T03:22:15;12.80;99.90
19654;DHT22;9975;48.046;7.804;2023-07-22T03:24:42;12.80;99.90
19654;DHT22;9975;48.046;7.804;2023-07-22T03:27:08;12.80;99.90
19654;DHT22;9975;48.046;7.804;2023-07-22T03:29:33;12.80;99.90
19654;DHT22;9975;48.046;7.804;2023-07-22T03:31:59;12.70;99.90
19654;DHT22;9975;48.046;7.804;2023-07-22T03:34:29;12.70;99.90
19654;DHT22;9975;48.046;7.804;2023-07-22T03:36:55;12.60;99.90
19654;DHT22;9975;48.046;7.804;2023-07-22T03:39:21;12.60;99.90
19654;DHT22;9975;48.046;7.804;2023-07-22T03:41:47;12.60;99.90
19654;DHT22;9975;48.046;7.804;2023-07-22T03:44:13;12.60;99.90
19654;DHT22;9975;48.046;7.804;2023-07-22T03:46:39;12.60;99.90
19654;DHT22;9975;48.046;7.804;2023-07-22T03:49:05;12.60;99.90
19654;DHT22;9975;48.046;7.804;2023-07-22T03:51:31;12.60;99.90
19654;DHT22;9975;48.046;7.804;2023-07-22T03:53:57;12.50;99.90
19654;DHT22;9975;48.046;7.804;2023-07-22T03:56:23;12.50;99.90
19654;DHT22;9975;48.046;7.804;2023-07-22T03:58:49;12.50;99.90
19654;DHT22;9975;48.046;7.804;2023-07-22T04:01:15;12.40;99.90
19654;DHT22;9975;48.046;7.804;2023-07-22T04:03:41;12.50;99.90
19654;DHT22;9975;48.046;7.804;2023-07-22T04:06:06;12.40;99.90
19654;DHT22;9975;48.046;7.804;2023-07-22T04:08:32;12.40;99.90
19654;DHT22;9975;48.046;7.804;2023-07-22T04:13:25;12.40;99.90
19654;DHT22;9975;48.046;7.804;2023-07-22T04:15:51;12.40;99.90
19654;DHT22;9975;48.046;7.804;2023-07-22T04:18:17;12.40;99.90
19654;DHT22;9975;48.046;7.804;2023-07-22T04:20:43;12.50;99.90
19654;DHT22;9975;48.046;7.804;2023-07-22T04:23:09;12.50;99.90
19654;DHT22;9975;48.046;7.804;2023-07-22T04:25:45;12.50;99.90
19654;DHT22;9975;48.046;7.804;2023-07-22T04:28:10;12.50;99.90
19654;DHT22;9975;48.046;7.804;2023-07-22T04:30:37;12.50;99.90
19654;DHT22;9975;48.046;7.804;2023-07-22T04:33:04;12.50;99.90
19654;DHT22;9975;48.046;7.804;2023-07-22T04:35:37;12.50;99.90
19654;DHT22;9975;48.046;7.804;2023-07-22T04:38:03;12.50;99.90
19654;DHT22;9975;48.046;7.804;2023-07-22T04:40:29;12.60;99.90
19654;DHT22;9975;48.046;7.804;2023-07-22T04:42:56;12.60;99.90
19654;DHT22;9975;48.046;7.804;2023-07-22T04:45:22;12.50;99.90
19654;DHT22;9975;48.046;7.804;2023-07-22T04:47:49;12.50;99.90
19654;DHT22;9975;48.046;7.804;2023-07-22T04:50:16;12.50;99.90
19654;DHT22;9975;48.046;7.804;2023-07-22T04:52:44;12.60;99.90
19654;DHT22;9975;48.046;7.804;2023-07-22T04:55:10;12.60;99.90
19654;DHT22;9975;48.046;7.804;2023-07-22T04:57:37;12.60;99.90
19654;DHT22;9975;48.046;7.804;2023-07-22T05:00:04;12.70;99.90
19654;DHT22;9975;48.046;7.804;2023-07-22T05:02:30;12.70;99.90
19654;DHT22;9975;48.046;7.804;2023-07-22T05:04:56;12.70;99.90
19654;DHT22;9975;48.046;7.804;2023-07-22T05:07:22;12.70;99.90
19654;DHT22;9975;48.046;7.804;2023-07-22T05:09:51;12.80;99.90
19654;DHT22;9975;48.046;7.804;2023-07-22T05:12:22;12.90;99.90
19654;DHT22;9975;48.046;7.804;2023-07-22T05:14:48;12.90;99.90
19654;DHT22;9975;48.046;7.804;2023-07-22T05:17:14;12.90;99.90
19654;DHT22;9975;48.046;7.804;2023-07-22T05:19:40;13.00;99.90
19654;DHT22;9975;48.046;7.804;2023-07-22T05:22:05;13.00;99.90
19654;DHT22;9975;48.046;7.804;2023-07-22T05:24:31;13.20;99.90
19654;DHT22;9975;48.046;7.804;2023-07-22T05:26:56;13.30;99.90
19654;DHT22;9975;48.046;7.804;2023-07-22T05:29:22;13.30;99.90
19654;DHT22;9975;48.046;7.804;2023-07-22T05:31:48;13.30;99.90
19654;DHT22;9975;48.046;7.804;2023-07-22T05:34:13;13.40;99.90
19654;DHT22;9975;48.046;7.804;2023-07-22T05:36:39;13.50;99.90
19654;DHT22;9975;48.046;7.804;2023-07-22T05:39:05;13.60;99.90
19654;DHT22;9975;48.046;7.804;2023-07-22T05:41:33;13.70;99.90
19654;DHT22;9975;48.046;7.804;2023-07-22T05:43:58;13.70;99.90
19654;DHT22;9975;48.046;7.804;2023-07-22T05:46:24;13.80;99.90
19654;DHT22;9975;48.046;7.804;2023-07-22T05:48:50;13.90;99.90
19654;DHT22;9975;48.046;7.804;2023-07-22T05:51:15;13.90;99.90
19654;DHT22;9975;48.046;7.804;2023-07-22T05:53:41;14.00;99.90
19654;DHT22;9975;48.046;7.804;2023-07-22T05:56:07;14.10;99.90
19654;DHT22;9975;48.046;7.804;2023-07-22T05:58:34;14.20;99.90
19654;DHT22;9975;48.046;7.804;2023-07-22T06:01:00;14.30;99.90
19654;DHT22;9975;48.046;7.804;2023-07-22T06:03:25;14.50;99.90
19654;DHT22;9975;48.046;7.804;2023-07-22T06:05:51;14.80;99.90
19654;DHT22;9975;48.046;7.804;2023-07-22T06:08:17;14.80;99.90
19654;DHT22;9975;48.046;7.804;2023-07-22T06:10:42;15.00;99.90
19654;DHT22;9975;48.046;7.804;2023-07-22T06:13:08;15.10;99.90
19654;DHT22;9975;48.046;7.804;2023-07-22T06:15:34;15.20;99.90
19654;DHT22;9975;48.046;7.804;2023-07-22T06:18:00;15.30;99.90
19654;DHT22;9975;48.046;7.804;2023-07-22T06:20:26;15.40;99.90
19654;DHT22;9975;48.046;7.804;2023-07-22T06:22:52;15.50;99.90
19654;DHT22;9975;48.046;7.804;2023-07-22T06:25:18;15.40;99.90
19654;DHT22;9975;48.046;7.804;2023-07-22T06:27:44;15.50;99.90
19654;DHT22;9975;48.046;7.804;2023-07-22T06:30:09;15.50;99.90
19654;DHT22;9975;48.046;7.804;2023-07-22T06:32:37;15.80;99.90
19654;DHT22;9975;48.046;7.804;2023-07-22T06:35:02;15.80;99.90
19654;DHT22;9975;48.046;7.804;2023-07-22T06:37:28;15.90;99.90
19654;DHT22;9975;48.046;7.804;2023-07-22T06:42:20;16.30;99.90
19654;DHT22;9975;48.046;7.804;2023-07-22T06:44:45;16.30;99.90
19654;DHT22;9975;48.046;7.804;2023-07-22T06:47:11;16.50;99.90
19654;DHT22;9975;48.046;7.804;2023-07-22T06:49:37;16.60;99.90
19654;DHT22;9975;48.046;7.804;2023-07-22T06:52:03;16.80;99.90
19654;DHT22;9975;48.046;7.804;2023-07-22T06:54:29;17.00;99.90
19654;DHT22;9975;48.046;7.804;2023-07-22T06:56:55;17.00;99.90
19654;DHT22;9975;48.046;7.804;2023-07-22T06:59:20;17.20;99.90
19654;DHT22;9975;48.046;7.804;2023-07-22T07:01:46;17.40;99.90
19654;DHT22;9975;48.046;7.804;2023-07-22T07:04:11;17.50;99.90
19654;DHT22;9975;48.046;7.804;2023-07-22T07:06:37;17.70;99.90
19654;DHT22;9975;48.046;7.804;2023-07-22T07:09:04;17.80;99.90
19654;DHT22;9975;48.046;7.804;2023-07-22T07:11:31;17.90;99.90
19654;DHT22;9975;48.046;7.804;2023-07-22T07:13:57;18.00;99.90
19654;DHT22;9975;48.046;7.804;2023-07-22T07:16:28;18.20;99.90
19654;DHT22;9975;48.046;7.804;2023-07-22T07:18:54;18.30;99.90
19654;DHT22;9975;48.046;7.804;2023-07-22T07:21:21;18.40;99.90
19654;DHT22;9975;48.046;7.804;2023-07-22T07:23:48;18.60;99.90
19654;DHT22;9975;48.046;7.804;2023-07-22T07:26:14;18.80;99.90
19654;DHT22;9975;48.046;7.804;2023-07-22T07:28:40;18.90;99.90
19654;DHT22;9975;48.046;7.804;2023-07-22T07:31:06;19.30;99.90
19654;DHT22;9975;48.046;7.804;2023-07-22T07:33:32;19.30;99.90
19654;DHT22;9975;48.046;7.804;2023-07-22T07:35:58;19.50;99.20
19654;DHT22;9975;48.046;7.804;2023-07-22T07:38:23;19.70;98.00
19654;DHT22;9975;48.046;7.804;2023-07-22T07:41:01;19.90;97.80
19654;DHT22;9975;48.046;7.804;2023-07-22T07:43:27;20.10;97.20
19654;DHT22;9975;48.046;7.804;2023-07-22T07:46:19;20.20;97.10
19654;DHT22;9975;48.046;7.804;2023-07-22T07:48:51;20.30;96.20
19654;DHT22;9975;48.046;7.804;2023-07-22T07:51:18;20.50;96.40
19654;DHT22;9975;48.046;7.804;2023-07-22T07:53:45;20.60;95.70
19654;DHT22;9975;48.046;7.804;2023-07-22T07:56:12;20.70;95.40
19654;DHT22;9975;48.046;7.804;2023-07-22T07:58:39;20.90;95.70
19654;DHT22;9975;48.046;7.804;2023-07-22T08:01:04;21.00;95.00
19654;DHT22;9975;48.046;7.804;2023-07-22T08:03:31;21.10;94.70
19654;DHT22;9975;48.046;7.804;2023-07-22T08:05:56;21.30;94.80
19654;DHT22;9975;48.046;7.804;2023-07-22T08:08:22;21.50;94.90
19654;DHT22;9975;48.046;7.804;2023-07-22T08:11:06;21.60;94.20
19654;DHT22;9975;48.046;7.804;2023-07-22T08:13:33;21.80;93.40
19654;DHT22;9975;48.046;7.804;2023-07-22T08:16:03;21.90;92.30
19654;DHT22;9975;48.046;7.804;2023-07-22T08:18:29;22.00;91.50
19654;DHT22;9975;48.046;7.804;2023-07-22T08:20:55;22.20;90.30
19654;DHT22;9975;48.046;7.804;2023-07-22T08:23:24;22.20;86.90
19654;DHT22;9975;48.046;7.804;2023-07-22T08:25:50;22.20;86.80
19654;DHT22;9975;48.046;7.804;2023-07-22T08:28:16;22.30;83.60
19654;DHT22;9975;48.046;7.804;2023-07-22T08:30:42;22.40;82.70
19654;DHT22;9975;48.046;7.804;2023-07-22T08:33:10;22.50;79.90
19654;DHT22;9975;48.046;7.804;2023-07-22T08:35:37;22.60;76.20
19654;DHT22;9975;48.046;7.804;2023-07-22T08:38:03;22.60;76.80
19654;DHT22;9975;48.046;7.804;2023-07-22T08:40:39;22.60;75.00
19654;DHT22;9975;48.046;7.804;2023-07-22T08:43:08;22.90;74.30
19654;DHT22;9975;48.046;7.804;2023-07-22T08:45:35;23.00;72.60
19654;DHT22;9975;48.046;7.804;2023-07-22T08:48:06;23.10;69.30
19654;DHT22;9975;48.046;7.804;2023-07-22T08:50:46;23.20;66.00
19654;DHT22;9975;48.046;7.804;2023-07-22T08:53:15;23.20;63.00
19654;DHT22;9975;48.046;7.804;2023-07-22T08:55:42;23.20;62.20
19654;DHT22;9975;48.046;7.804;2023-07-22T08:58:11;23.30;62.20
19654;DHT22;9975;48.046;7.804;2023-07-22T09:00:38;23.60;61.20
19654;DHT22;9975;48.046;7.804;2023-07-22T09:03:04;23.40;59.90
19654;DHT22;9975;48.046;7.804;2023-07-22T09:05:32;23.60;58.90
19654;DHT22;9975;48.046;7.804;2023-07-22T09:07:59;23.70;58.20
19654;DHT22;9975;48.046;7.804;2023-07-22T09:10:27;23.70;56.80
19654;DHT22;9975;48.046;7.804;2023-07-22T09:12:54;23.80;56.30
19654;DHT22;9975;48.046;7.804;2023-07-22T09:15:22;23.90;56.70
19654;DHT22;9975;48.046;7.804;2023-07-22T09:17:49;24.00;55.80
19654;DHT22;9975;48.046;7.804;2023-07-22T09:20:15;23.90;52.10
19654;DHT22;9975;48.046;7.804;2023-07-22T09:22:50;23.90;51.20
19654;DHT22;9975;48.046;7.804;2023-07-22T09:25:24;24.00;52.90
19654;DHT22;9975;48.046;7.804;2023-07-22T09:27:52;24.20;52.20
19654;DHT22;9975;48.046;7.804;2023-07-22T09:30:22;24.50;52.00
19654;DHT22;9975;48.046;7.804;2023-07-22T09:32:49;24.70;51.50
19654;DHT22;9975;48.046;7.804;2023-07-22T09:35:15;24.90;51.30
19654;DHT22;9975;48.046;7.804;2023-07-22T09:37:40;24.70;50.20
19654;DHT22;9975;48.046;7.804;2023-07-22T09:40:23;25.00;48.60
19654;DHT22;9975;48.046;7.804;2023-07-22T09:42:51;25.20;45.20
19654;DHT22;9975;48.046;7.804;2023-07-22T09:45:18;25.50;43.90
19654;DHT22;9975;48.046;7.804;2023-07-22T09:47:45;25.80;43.50
19654;DHT22;9975;48.046;7.804;2023-07-22T09:50:19;25.30;41.80
19654;DHT22;9975;48.046;7.804;2023-07-22T09:52:47;24.70;42.10
19654;DHT22;9975;48.046;7.804;2023-07-22T09:55:18;24.50;42.60
19654;DHT22;9975;48.046;7.804;2023-07-22T09:57:46;24.40;42.80
19654;DHT22;9975;48.046;7.804;2023-07-22T10:00:14;24.20;44.10
19654;DHT22;9975;48.046;7.804;2023-07-22T10:02:41;24.20;45.10
19654;DHT22;9975;48.046;7.804;2023-07-22T10:05:13;24.00;45.20
19654;DHT22;9975;48.046;7.804;2023-07-22T10:07:51;23.90;45.50
19654;DHT22;9975;48.046;7.804;2023-07-22T10:10:26;23.90;45.80
19654;DHT22;9975;48.046;7.804;2023-07-22T10:12:53;23.70;46.00
19654;DHT22;9975;48.046;7.804;2023-07-22T10:15:19;24.00;45.80
19654;DHT22;9975;48.046;7.804;2023-07-22T10:17:45;24.70;45.00
19654;DHT22;9975;48.046;7.804;2023-07-22T10:20:13;24.50;41.20
19654;DHT22;9975;48.046;7.804;2023-07-22T10:22:46;24.80;40.70
19654;DHT22;9975;48.046;7.804;2023-07-22T10:25:15;25.10;41.80
19654;DHT22;9975;48.046;7.804;2023-07-22T10:27:41;25.30;37.90
19654;DHT22;9975;48.046;7.804;2023-07-22T10:30:14;25.60;38.20
19654;DHT22;9975;48.046;7.804;2023-07-22T10:32:45;26.00;39.30
19654;DHT22;9975;48.046;7.804;2023-07-22T10:35:22;25.70;37.90
19654;DHT22;9975;48.046;7.804;2023-07-22T10:37:49;25.60;37.50
19654;DHT22;9975;48.046;7.804;2023-07-22T10:40:18;25.70;37.90
19654;DHT22;9975;48.046;7.804;2023-07-22T10:45:55;25.40;35.40
19654;DHT22;9975;48.046;7.804;2023-07-22T10:48:25;25.70;35.30
19654;DHT22;9975;48.046;7.804;2023-07-22T10:51:05;26.10;35.10
19654;DHT22;9975;48.046;7.804;2023-07-22T10:53:31;26.10;36.30
19654;DHT22;9975;48.046;7.804;2023-07-22T11:01:33;25.80;36.80
19654;DHT22;9975;48.046;7.804;2023-07-22T11:12:15;27.20;34.10
19654;DHT22;9975;48.046;7.804;2023-07-22T11:14:49;27.60;33.10
19654;DHT22;9975;48.046;7.804;2023-07-22T11:17:17;27.60;32.60
19654;DHT22;9975;48.046;7.804;2023-07-22T11:19:43;27.20;32.00
19654;DHT22;9975;48.046;7.804;2023-07-22T11:22:09;26.90;31.80
19654;DHT22;9975;48.046;7.804;2023-07-22T11:24:36;26.90;31.60
19654;DHT22;9975;48.046;7.804;2023-07-22T11:27:06;27.30;31.50
19654;DHT22;9975;48.046;7.804;2023-07-22T11:29:34;27.60;31.90
19654;DHT22;9975;48.046;7.804;2023-07-22T11:32:01;28.10;30.70
19654;DHT22;9975;48.046;7.804;2023-07-22T11:34:27;27.70;28.20
19654;DHT22;9975;48.046;7.804;2023-07-22T11:36:54;27.90;29.20
19654;DHT22;9975;48.046;7.804;2023-07-22T11:39:25;27.90;27.90
19654;DHT22;9975;48.046;7.804;2023-07-22T11:41:52;28.00;27.70
19654;DHT22;9975;48.046;7.804;2023-07-22T11:44:20;28.10;26.80
19654;DHT22;9975;48.046;7.804;2023-07-22T11:47:05;28.30;26.20
19654;DHT22;9975;48.046;7.804;2023-07-22T11:49:34;28.40;25.80
19654;DHT22;9975;48.046;7.804;2023-07-22T11:54:31;28.50;26.20
19654;DHT22;9975;48.046;7.804;2023-07-22T11:56:57;28.80;25.30
19654;DHT22;9975;48.046;7.804;2023-07-22T11:59:37;28.50;25.70
19654;DHT22;9975;48.046;7.804;2023-07-22T12:02:03;28.50;24.50
19654;DHT22;9975;48.046;7.804;2023-07-22T12:04:32;28.60;22.80
19654;DHT22;9975;48.046;7.804;2023-07-22T12:06:58;28.80;23.60
19654;DHT22;9975;48.046;7.804;2023-07-22T12:09:24;28.40;23.40
19654;DHT22;9975;48.046;7.804;2023-07-22T12:11:56;28.30;24.00
19654;DHT22;9975;48.046;7.804;2023-07-22T12:14:23;28.40;23.10
19654;DHT22;9975;48.046;7.804;2023-07-22T12:16:55;28.50;21.80
19654;DHT22;9975;48.046;7.804;2023-07-22T12:19:22;28.60;21.90
19654;DHT22;9975;48.046;7.804;2023-07-22T12:21:48;28.40;21.00
19654;DHT22;9975;48.046;7.804;2023-07-22T12:24:14;28.10;21.10
19654;DHT22;9975;48.046;7.804;2023-07-22T12:26:40;28.10;21.90
19654;DHT22;9975;48.046;7.804;2023-07-22T12:29:07;28.30;22.10
19654;DHT22;9975;48.046;7.804;2023-07-22T12:31:33;28.30;22.20
19654;DHT22;9975;48.046;7.804;2023-07-22T12:33:59;28.70;21.70
19654;DHT22;9975;48.046;7.804;2023-07-22T12:36:24;29.20;21.70
19654;DHT22;9975;48.046;7.804;2023-07-22T12:38:50;29.00;21.20
19654;DHT22;9975;48.046;7.804;2023-07-22T12:41:16;28.80;21.70
19654;DHT22;9975;48.046;7.804;2023-07-22T12:43:42;29.00;21.30
19654;DHT22;9975;48.046;7.804;2023-07-22T12:46:07;29.30;21.10
19654;DHT22;9975;48.046;7.804;2023-07-22T12:48:43;28.70;21.40
19654;DHT22;9975;48.046;7.804;2023-07-22T12:51:09;28.50;20.80
19654;DHT22;9975;48.046;7.804;2023-07-22T12:53:35;28.60;21.60
19654;DHT22;9975;48.046;7.804;2023-07-22T12:56:00;28.40;21.30
19654;DHT22;9975;48.046;7.804;2023-07-22T12:58:28;28.90;21.70
19654;DHT22;9975;48.046;7.804;2023-07-22T13:00:54;28.70;22.00
19654;DHT22;9975;48.046;7.804;2023-07-22T13:03:20;28.50;22.40
19654;DHT22;9975;48.046;7.804;2023-07-22T13:05:45;28.50;22.30
19654;DHT22;9975;48.046;7.804;2023-07-22T13:08:11;28.90;22.30
19654;DHT22;9975;48.046;7.804;2023-07-22T13:10:36;28.70;21.60
19654;DHT22;9975;48.046;7.804;2023-07-22T13:13:04;28.30;20.90
19654;DHT22;9975;48.046;7.804;2023-07-22T13:15:31;28.00;22.00
19654;DHT22;9975;48.046;7.804;2023-07-22T13:17:57;28.40;21.30
19654;DHT22;9975;48.046;7.804;2023-07-22T13:20:22;28.90;21.20
19654;DHT22;9975;48.046;7.804;2023-07-22T13:22:48;29.10;20.50
19654;DHT22;9975;48.046;7.804;2023-07-22T13:25:13;29.20;21.00
19654;DHT22;9975;48.046;7.804;2023-07-22T13:27:39;29.20;21.50
19654;DHT22;9975;48.046;7.804;2023-07-22T13:30:09;29.40;20.60
19654;DHT22;9975;48.046;7.804;2023-07-22T13:32:35;29.00;20.10
19654;DHT22;9975;48.046;7.804;2023-07-22T13:35:00;29.20;20.70
19654;DHT22;9975;48.046;7.804;2023-07-22T13:37:26;29.20;20.70
19654;DHT22;9975;48.046;7.804;2023-07-22T13:39:52;29.50;19.80
19654;DHT22;9975;48.046;7.804;2023-07-22T13:42:18;28.70;20.90
19654;DHT22;9975;48.046;7.804;2023-07-22T13:44:44;28.30;21.20
19654;DHT22;9975;48.046;7.804;2023-07-22T13:47:10;28.30;22.30
19654;DHT22;9975;48.046;7.804;2023-07-22T13:49:35;28.40;22.40
19654;DHT22;9975;48.046;7.804;2023-07-22T13:52:01;28.40;21.10
19654;DHT22;9975;48.046;7.804;2023-07-22T13:54:27;28.90;21.00
19654;DHT22;9975;48.046;7.804;2023-07-22T13:56:52;28.80;20.10
19654;DHT22;9975;48.046;7.804;2023-07-22T13:59:18;28.30;20.40
19654;DHT22;9975;48.046;7.804;2023-07-22T14:01:43;28.20;21.00
19654;DHT22;9975;48.046;7.804;2023-07-22T14:04:09;28.50;21.20
19654;DHT22;9975;48.046;7.804;2023-07-22T14:06:34;28.50;21.40
19654;DHT22;9975;48.046;7.804;2023-07-22T14:09:00;28.30;20.80
19654;DHT22;9975;48.046;7.804;2023-07-22T14:11:26;28.40;20.00
19654;DHT22;9975;48.046;7.804;2023-07-22T14:13:51;28.70;20.20
19654;DHT22;9975;48.046;7.804;2023-07-22T14:16:18;28.60;19.90
19654;DHT22;9975;48.046;7.804;2023-07-22T14:18:43;28.50;19.80
19654;DHT22;9975;48.046;7.804;2023-07-22T14:21:09;28.80;20.10
19654;DHT22;9975;48.046;7.804;2023-07-22T14:23:37;28.70;20.00
19654;DHT22;9975;48.046;7.804;2023-07-22T14:26:02;29.10;20.30
19654;DHT22;9975;48.046;7.804;2023-07-22T14:28:28;29.20;19.40
19654;DHT22;9975;48.046;7.804;2023-07-22T14:30:53;29.50;19.00
19654;DHT22;9975;48.046;7.804;2023-07-22T14:33:19;29.70;17.50
19654;DHT22;9975;48.046;7.804;2023-07-22T14:35:45;29.60;18.10
19654;DHT22;9975;48.046;7.804;2023-07-22T14:38:10;29.20;18.30
19654;DHT22;9975;48.046;7.804;2023-07-22T14:40:36;28.90;16.60
19654;DHT22;9975;48.046;7.804;2023-07-22T14:43:02;28.90;16.40
19654;DHT22;9975;48.046;7.804;2023-07-22T14:45:28;28.80;17.30
19654;DHT22;9975;48.046;7.804;2023-07-22T14:47:53;28.10;15.30
19654;DHT22;9975;48.046;7.804;2023-07-22T14:50:19;28.50;16.70
19654;DHT22;9975;48.046;7.804;2023-07-22T14:52:45;29.00;17.40
19654;DHT22;9975;48.046;7.804;2023-07-22T14:55:10;29.30;16.70
19654;DHT22;9975;48.046;7.804;2023-07-22T14:57:36;29.20;16.50
19654;DHT22;9975;48.046;7.804;2023-07-22T15:00:02;29.20;17.00
19654;DHT22;9975;48.046;7.804;2023-07-22T15:02:27;29.40;16.30
19654;DHT22;9975;48.046;7.804;2023-07-22T15:04:53;29.20;15.80
19654;DHT22;9975;48.046;7.804;2023-07-22T15:07:20;29.00;15.10
19654;DHT22;9975;48.046;7.804;2023-07-22T15:09:46;29.00;16.10
19654;DHT22;9975;48.046;7.804;2023-07-22T15:12:11;28.90;15.50
19654;DHT22;9975;48.046;7.804;2023-07-22T15:14:37;28.90;15.70
19654;DHT22;9975;48.046;7.804;2023-07-22T15:17:03;29.20;16.10
19654;DHT22;9975;48.046;7.804;2023-07-22T15:19:29;29.30;16.10
19654;DHT22;9975;48.046;7.804;2023-07-22T15:21:54;29.10;16.30
19654;DHT22;9975;48.046;7.804;2023-07-22T15:24:20;29.00;16.90
19654;DHT22;9975;48.046;7.804;2023-07-22T15:26:46;29.10;15.90
19654;DHT22;9975;48.046;7.804;2023-07-22T15:29:11;29.20;16.20
19654;DHT22;9975;48.046;7.804;2023-07-22T15:31:37;29.50;15.90
19654;DHT22;9975;48.046;7.804;2023-07-22T15:34:02;29.40;16.00
19654;DHT22;9975;48.046;7.804;2023-07-22T15:36:28;29.50;16.30
19654;DHT22;9975;48.046;7.804;2023-07-22T15:38:54;29.30;16.50
19654;DHT22;9975;48.046;7.804;2023-07-22T15:41:19;29.30;16.60
19654;DHT22;9975;48.046;7.804;2023-07-22T15:43:45;29.20;16.90
19654;DHT22;9975;48.046;7.804;2023-07-22T15:46:11;29.20;16.70
19654;DHT22;9975;48.046;7.804;2023-07-22T15:48:37;29.20;16.20
19654;DHT22;9975;48.046;7.804;2023-07-22T15:51:02;29.30;16.70
19654;DHT22;9975;48.046;7.804;2023-07-22T15:53:28;29.60;17.30
19654;DHT22;9975;48.046;7.804;2023-07-22T15:55:54;29.60;16.80
19654;DHT22;9975;48.046;7.804;2023-07-22T15:58:20;29.60;16.30
19654;DHT22;9975;48.046;7.804;2023-07-22T16:00:46;29.40;16.40
19654;DHT22;9975;48.046;7.804;2023-07-22T16:03:13;29.20;16.60
19654;DHT22;9975;48.046;7.804;2023-07-22T16:05:39;29.20;17.30
19654;DHT22;9975;48.046;7.804;2023-07-22T16:08:05;29.00;17.20
19654;DHT22;9975;48.046;7.804;2023-07-22T16:10:31;28.80;17.50
19654;DHT22;9975;48.046;7.804;2023-07-22T16:12:59;29.00;17.60
19654;DHT22;9975;48.046;7.804;2023-07-22T16:15:24;29.20;17.30
19654;DHT22;9975;48.046;7.804;2023-07-22T16:17:50;29.30;17.40
19654;DHT22;9975;48.046;7.804;2023-07-22T16:20:16;29.00;17.20
19654;DHT22;9975;48.046;7.804;2023-07-22T16:22:43;29.10;17.50
19654;DHT22;9975;48.046;7.804;2023-07-22T16:25:09;29.00;17.70
19654;DHT22;9975;48.046;7.804;2023-07-22T16:27:35;29.00;18.20
19654;DHT22;9975;48.046;7.804;2023-07-22T16:30:01;28.90;18.70
19654;DHT22;9975;48.046;7.804;2023-07-22T16:32:26;28.50;17.60
19654;DHT22;9975;48.046;7.804;2023-07-22T16:34:52;28.40;17.60
19654;DHT22;9975;48.046;7.804;2023-07-22T16:37:18;28.30;18.20
19654;DHT22;9975;48.046;7.804;2023-07-22T16:39:43;28.30;18.10
19654;DHT22;9975;48.046;7.804;2023-07-22T16:42:09;28.30;18.00
19654;DHT22;9975;48.046;7.804;2023-07-22T16:44:35;28.40;18.50
19654;DHT22;9975;48.046;7.804;2023-07-22T16:47:00;28.10;18.10
19654;DHT22;9975;48.046;7.804;2023-07-22T16:49:29;27.90;19.00
19654;DHT22;9975;48.046;7.804;2023-07-22T16:51:55;27.80;19.10
19654;DHT22;9975;48.046;7.804;2023-07-22T16:54:21;27.80;18.60
19654;DHT22;9975;48.046;7.804;2023-07-22T16:56:47;27.70;18.90
19654;DHT22;9975;48.046;7.804;2023-07-22T16:59:13;27.80;19.10
19654;DHT22;9975;48.046;7.804;2023-07-22T17:01:39;27.80;19.60
19654;DHT22;9975;48.046;7.804;2023-07-22T17:04:33;27.60;19.20
19654;DHT22;9975;48.046;7.804;2023-07-22T17:06:59;27.40;19.80
19654;DHT22;9975;48.046;7.804;2023-07-22T17:09:24;27.50;19.90
19654;DHT22;9975;48.046;7.804;2023-07-22T17:11:50;27.60;20.30
19654;DHT22;9975;48.046;7.804;2023-07-22T17:14:16;27.70;19.90
19654;DHT22;9975;48.046;7.804;2023-07-22T17:16:41;27.80;20.10
19654;DHT22;9975;48.046;7.804;2023-07-22T17:19:07;27.80;20.00
19654;DHT22;9975;48.046;7.804;2023-07-22T17:21:32;27.70;19.70
19654;DHT22;9975;48.046;7.804;2023-07-22T17:23:58;27.50;20.00
19654;DHT22;9975;48.046;7.804;2023-07-22T17:26:24;27.40;19.60
19654;DHT22;9975;48.046;7.804;2023-07-22T17:28:49;27.30;19.90
19654;DHT22;9975;48.046;7.804;2023-07-22T17:31:15;27.10;20.50
19654;DHT22;9975;48.046;7.804;2023-07-22T17:33:41;27.10;21.10
19654;DHT22;9975;48.046;7.804;2023-07-22T17:36:06;27.00;21.10
19654;DHT22;9975;48.046;7.804;2023-07-22T17:38:32;27.10;21.30
19654;DHT22;9975;48.046;7.804;2023-07-22T17:40:57;27.10;20.80
19654;DHT22;9975;48.046;7.804;2023-07-22T17:43:23;27.00;21.10
19654;DHT22;9975;48.046;7.804;2023-07-22T17:45:49;26.90;21.00
19654;DHT22;9975;48.046;7.804;2023-07-22T17:48:14;26.90;21.20
19654;DHT22;9975;48.046;7.804;2023-07-22T17:50:40;26.70;21.40
19654;DHT22;9975;48.046;7.804;2023-07-22T17:53:05;26.90;21.40
19654;DHT22;9975;48.046;7.804;2023-07-22T17:55:31;26.80;21.20
19654;DHT22;9975;48.046;7.804;2023-07-22T17:57:57;26.70;21.30
19654;DHT22;9975;48.046;7.804;2023-07-22T18:00:22;26.60;21.60
19654;DHT22;9975;48.046;7.804;2023-07-22T18:02:48;26.60;21.70